sensor_id;sensor_type;location;lat;lon;timestamp;P1;durP1;ratioP1;P2;durP2;ratioP2
64033;SDS011;50280;49.864;8.638;2022-08-01T00:02:48;4.07;;;2.70;;
64033;SDS011;50280;49.864;8.638;2022-08-01T00:05:41;3.17;;;2.47;;
64033;SDS011;50280;49.864;8.638;2022-08-01T00:08:32;4.50;;;2.50;;
64033;SDS011;50280;49.864;8.638;2022-08-01T00:11:23;4.35;;;2.53;;
64033;SDS011;50280;49.864;8.638;2022-08-01T00:14:15;4.88;;;2.50;;
64033;SDS011;50280;49.864;8.638;2022-08-01T00:17:06;5.72;;;2.90;;
64033;SDS011;50280;49.864;8.638;2022-08-01T00:19:57;5.07;;;2.35;;
64033;SDS011;50280;49.864;8.638;2022-08-01T00:22:50;5.00;;;2.22;;
64033;SDS011;50280;49.864;8.638;2022-08-01T00:25:41;3.92;;;2.13;;
64033;SDS011;50280;49.864;8.638;2022-08-01T00:28:32;3.60;;;2.22;;
64033;SDS011;50280;49.864;8.638;2022-08-01T00:31:24;2.42;;;1.90;;
64033;SDS011;50280;49.864;8.638;2022-08-01T00:34:15;4.85;;;2.50;;
64033;SDS011;50280;49.864;8.638;2022-08-01T00:37:06;4.78;;;2.30;;
64033;SDS011;50280;49.864;8.638;2022-08-01T00:39:59;6.10;;;2.55;;
64033;SDS011;50280;49.864;8.638;2022-08-01T00:42:50;5.60;;;2.58;;
64033;SDS011;50280;49.864;8.638;2022-08-01T00:45:41;4.95;;;2.83;;
64033;SDS011;50280;49.864;8.638;2022-08-01T00:48:33;5.88;;;2.38;;
64033;SDS011;50280;49.864;8.638;2022-08-01T00:51:24;3.13;;;2.33;;
64033;SDS011;50280;49.864;8.638;2022-08-01T00:54:17;3.80;;;2.33;;
64033;SDS011;50280;49.864;8.638;2022-08-01T00:57:10;3.28;;;2.15;;
64033;SDS011;50280;49.864;8.638;2022-08-01T01:00:03;5.10;;;2.30;;
64033;SDS011;50280;49.864;8.638;2022-08-01T01:02:58;4.97;;;2.38;;
64033;SDS011;50280;49.864;8.638;2022-08-01T01:05:52;2.90;;;2.15;;
64033;SDS011;50280;49.864;8.638;2022-08-01T01:09:06;3.88;;;2.60;;
64033;SDS011;50280;49.864;8.638;2022-08-01T01:12:29;4.60;;;2.40;;
64033;SDS011;50280;49.864;8.638;2022-08-01T01:15:34;4.35;;;2.20;;
64033;SDS011;50280;49.864;8.638;2022-08-01T01:18:34;4.18;;;2.53;;
64033;SDS011;50280;49.864;8.638;2022-08-01T01:21:39;5.85;;;2.25;;
64033;SDS011;50280;49.864;8.638;2022-08-01T01:25:23;3.72;;;2.20;;
64033;SDS011;50280;49.864;8.638;2022-08-01T01:28:33;5.40;;;2.17;;
64033;SDS011;50280;49.864;8.638;2022-08-01T01:31:36;3.45;;;2.17;;
64033;SDS011;50280;49.864;8.638;2022-08-01T01:34:38;3.97;;;2.15;;
64033;SDS011;50280;49.864;8.638;2022-08-01T01:37:36;3.25;;;1.98;;
64033;SDS011;50280;49.864;8.638;2022-08-01T01:40:32;3.28;;;2.20;;
64033;SDS011;50280;49.864;8.638;2022-08-01T01:43:24;2.85;;;1.90;;
64033;SDS011;50280;49.864;8.638;2022-08-01T01:46:20;3.42;;;1.77;;
64033;SDS011;50280;49.864;8.638;2022-08-01T01:49:18;3.25;;;1.38;;
64033;SDS011;50280;49.864;8.638;2022-08-01T01:52:15;2.92;;;1.80;;
64033;SDS011;50280;49.864;8.638;2022-08-01T01:55:09;4.03;;;1.60;;
64033;SDS011;50280;49.864;8.638;2022-08-01T01:58:03;6.15;;;1.90;;
64033;SDS011;50280;49.864;8.638;2022-08-01T02:01:03;2.45;;;1.50;;
64033;SDS011;50280;49.864;8.638;2022-08-01T02:03:57;4.60;;;1.90;;
64033;SDS011;50280;49.864;8.638;2022-08-01T02:06:53;3.97;;;1.90;;
64033;SDS011;50280;49.864;8.638;2022-08-01T02:09:47;4.15;;;1.85;;
64033;SDS011;50280;49.864;8.638;2022-08-01T02:12:43;2.97;;;1.50;;
64033;SDS011;50280;49.864;8.638;2022-08-01T02:15:39;3.67;;;1.80;;
64033;SDS011;50280;49.864;8.638;2022-08-01T02:18:31;3.28;;;1.60;;
64033;SDS011;50280;49.864;8.638;2022-08-01T02:21:25;3.17;;;1.50;;
64033;SDS011;50280;49.864;8.638;2022-08-01T02:24:26;6.70;;;1.92;;
64033;SDS011;50280;49.864;8.638;2022-08-01T02:27:30;2.90;;;1.50;;
64033;SDS011;50280;49.864;8.638;2022-08-01T02:30:33;3.13;;;1.50;;
64033;SDS011;50280;49.864;8.638;2022-08-01T02:33:36;4.57;;;1.70;;
64033;SDS011;50280;49.864;8.638;2022-08-01T02:36:36;2.80;;;1.52;;
64033;SDS011;50280;49.864;8.638;2022-08-01T02:39:30;2.75;;;1.50;;
64033;SDS011;50280;49.864;8.638;2022-08-01T02:42:26;2.30;;;1.67;;
64033;SDS011;50280;49.864;8.638;2022-08-01T02:45:21;3.80;;;1.60;;
64033;SDS011;50280;49.864;8.638;2022-08-01T02:48:17;2.67;;;1.45;;
64033;SDS011;50280;49.864;8.638;2022-08-01T02:51:13;3.13;;;1.50;;
64033;SDS011;50280;49.864;8.638;2022-08-01T02:54:08;3.33;;;1.40;;
64033;SDS011;50280;49.864;8.638;2022-08-01T02:57:03;2.20;;;1.50;;
64033;SDS011;50280;49.864;8.638;2022-08-01T02:59:59;2.78;;;1.60;;
64033;SDS011;50280;49.864;8.638;2022-08-01T03:02:52;3.70;;;1.55;;
64033;SDS011;50280;49.864;8.638;2022-08-01T03:05:46;2.50;;;1.30;;
64033;SDS011;50280;49.864;8.638;2022-08-01T03:08:39;4.30;;;1.60;;
64033;SDS011;50280;49.864;8.638;2022-08-01T03:11:32;3.38;;;1.70;;
64033;SDS011;50280;49.864;8.638;2022-08-01T03:14:31;2.28;;;1.50;;
64033;SDS011;50280;49.864;8.638;2022-08-01T03:17:28;2.65;;;1.65;;
64033;SDS011;50280;49.864;8.638;2022-08-01T03:20:22;2.28;;;1.30;;
64033;SDS011;50280;49.864;8.638;2022-08-01T03:23:17;3.28;;;1.50;;
64033;SDS011;50280;49.864;8.638;2022-08-01T03:26:13;2.38;;;1.40;;
64033;SDS011;50280;49.864;8.638;2022-08-01T03:29:05;2.95;;;1.50;;
64033;SDS011;50280;49.864;8.638;2022-08-01T03:32:07;3.22;;;1.73;;
64033;SDS011;50280;49.864;8.638;2022-08-01T03:35:02;4.53;;;1.75;;
64033;SDS011;50280;49.864;8.638;2022-08-01T03:37:55;3.50;;;1.40;;
64033;SDS011;50280;49.864;8.638;2022-08-01T03:40:52;3.22;;;1.40;;
64033;SDS011;50280;49.864;8.638;2022-08-01T03:43:55;3.75;;;1.38;;
64033;SDS011;50280;49.864;8.638;2022-08-01T03:46:56;4.10;;;1.73;;
64033;SDS011;50280;49.864;8.638;2022-08-01T03:49:57;2.58;;;1.30;;
64033;SDS011;50280;49.864;8.638;2022-08-01T03:52:51;4.40;;;1.77;;
64033;SDS011;50280;49.864;8.638;2022-08-01T03:55:49;3.97;;;1.40;;
64033;SDS011;50280;49.864;8.638;2022-08-01T03:58:43;3.78;;;1.50;;
64033;SDS011;50280;49.864;8.638;2022-08-01T04:01:36;3.08;;;1.60;;
64033;SDS011;50280;49.864;8.638;2022-08-01T04:04:28;3.70;;;1.60;;
64033;SDS011;50280;49.864;8.638;2022-08-01T04:07:23;3.15;;;1.40;;
64033;SDS011;50280;49.864;8.638;2022-08-01T04:10:18;3.20;;;1.73;;
64033;SDS011;50280;49.864;8.638;2022-08-01T04:13:09;6.85;;;1.60;;
64033;SDS011;50280;49.864;8.638;2022-08-01T04:16:00;3.22;;;1.55;;
64033;SDS011;50280;49.864;8.638;2022-08-01T04:18:52;4.82;;;1.50;;
64033;SDS011;50280;49.864;8.638;2022-08-01T04:21:43;3.42;;;1.33;;
64033;SDS011;50280;49.864;8.638;2022-08-01T04:24:35;3.63;;;1.48;;
64033;SDS011;50280;49.864;8.638;2022-08-01T04:27:28;2.83;;;1.50;;
64033;SDS011;50280;49.864;8.638;2022-08-01T04:31:15;3.10;;;1.60;;
64033;SDS011;50280;49.864;8.638;2022-08-01T04:34:08;3.80;;;1.67;;
64033;SDS011;50280;49.864;8.638;2022-08-01T04:37:07;5.53;;;1.98;;
64033;SDS011;50280;49.864;8.638;2022-08-01T04:40:04;3.05;;;1.50;;
64033;SDS011;50280;49.864;8.638;2022-08-01T04:43:00;3.83;;;1.58;;
64033;SDS011;50280;49.864;8.638;2022-08-01T04:45:51;5.75;;;1.77;;
64033;SDS011;50280;49.864;8.638;2022-08-01T04:48:44;3.03;;;1.58;;
64033;SDS011;50280;49.864;8.638;2022-08-01T04:51:49;3.97;;;1.55;;
64033;SDS011;50280;49.864;8.638;2022-08-01T04:54:41;2.97;;;1.50;;
64033;SDS011;50280;49.864;8.638;2022-08-01T04:57:34;5.25;;;1.77;;
64033;SDS011;50280;49.864;8.638;2022-08-01T05:00:31;4.07;;;1.42;;
64033;SDS011;50280;49.864;8.638;2022-08-01T05:03:22;4.10;;;1.80;;
64033;SDS011;50280;49.864;8.638;2022-08-01T05:06:13;3.83;;;1.70;;
64033;SDS011;50280;49.864;8.638;2022-08-01T05:09:04;5.65;;;1.70;;
64033;SDS011;50280;49.864;8.638;2022-08-01T05:11:55;4.32;;;2.00;;
64033;SDS011;50280;49.864;8.638;2022-08-01T05:14:48;3.15;;;1.75;;
64033;SDS011;50280;49.864;8.638;2022-08-01T05:17:39;3.65;;;1.40;;
64033;SDS011;50280;49.864;8.638;2022-08-01T05:20:30;4.60;;;1.88;;
64033;SDS011;50280;49.864;8.638;2022-08-01T05:23:21;4.93;;;1.73;;
64033;SDS011;50280;49.864;8.638;2022-08-01T05:26:13;3.70;;;1.70;;
64033;SDS011;50280;49.864;8.638;2022-08-01T05:29:04;6.05;;;1.80;;
64033;SDS011;50280;49.864;8.638;2022-08-01T05:31:56;4.25;;;2.00;;
64033;SDS011;50280;49.864;8.638;2022-08-01T05:34:48;3.75;;;1.75;;
64033;SDS011;50280;49.864;8.638;2022-08-01T05:37:39;3.75;;;1.65;;
64033;SDS011;50280;49.864;8.638;2022-08-01T05:40:30;4.25;;;1.70;;
64033;SDS011;50280;49.864;8.638;2022-08-01T05:43:21;9.38;;;1.67;;
64033;SDS011;50280;49.864;8.638;2022-08-01T05:46:12;4.47;;;2.03;;
64033;SDS011;50280;49.864;8.638;2022-08-01T05:49:05;5.55;;;1.88;;
64033;SDS011;50280;49.864;8.638;2022-08-01T05:51:56;5.00;;;1.75;;
64033;SDS011;50280;49.864;8.638;2022-08-01T05:54:47;5.10;;;1.60;;
64033;SDS011;50280;49.864;8.638;2022-08-01T05:57:39;4.97;;;1.90;;
64033;SDS011;50280;49.864;8.638;2022-08-01T06:00:30;4.57;;;1.65;;
64033;SDS011;50280;49.864;8.638;2022-08-01T06:03:21;3.67;;;1.50;;
64033;SDS011;50280;49.864;8.638;2022-08-01T06:06:14;4.80;;;1.90;;
64033;SDS011;50280;49.864;8.638;2022-08-01T06:09:05;3.70;;;1.65;;
64033;SDS011;50280;49.864;8.638;2022-08-01T06:11:56;3.63;;;1.55;;
64033;SDS011;50280;49.864;8.638;2022-08-01T06:14:47;2.72;;;1.50;;
64033;SDS011;50280;49.864;8.638;2022-08-01T06:17:38;3.15;;;1.60;;
64033;SDS011;50280;49.864;8.638;2022-08-01T06:20:29;4.53;;;1.95;;
64033;SDS011;50280;49.864;8.638;2022-08-01T06:23:22;2.67;;;1.63;;
64033;SDS011;50280;49.864;8.638;2022-08-01T06:26:13;3.88;;;1.70;;
64033;SDS011;50280;49.864;8.638;2022-08-01T06:29:07;3.08;;;1.58;;
64033;SDS011;50280;49.864;8.638;2022-08-01T06:31:58;4.38;;;1.70;;
64033;SDS011;50280;49.864;8.638;2022-08-01T06:34:49;4.35;;;1.90;;
64033;SDS011;50280;49.864;8.638;2022-08-01T06:37:41;3.90;;;2.13;;
64033;SDS011;50280;49.864;8.638;2022-08-01T06:40:34;3.50;;;1.70;;
64033;SDS011;50280;49.864;8.638;2022-08-01T06:43:25;2.80;;;1.90;;
64033;SDS011;50280;49.864;8.638;2022-08-01T06:46:16;3.33;;;2.10;;
64033;SDS011;50280;49.864;8.638;2022-08-01T06:49:07;4.30;;;2.03;;
64033;SDS011;50280;49.864;8.638;2022-08-01T06:51:58;3.13;;;1.98;;
64033;SDS011;50280;49.864;8.638;2022-08-01T06:54:49;4.85;;;2.55;;
64033;SDS011;50280;49.864;8.638;2022-08-01T06:57:49;3.50;;;2.00;;
64033;SDS011;50280;49.864;8.638;2022-08-01T07:00:42;4.20;;;2.13;;
64033;SDS011;50280;49.864;8.638;2022-08-01T07:03:34;3.38;;;2.08;;
64033;SDS011;50280;49.864;8.638;2022-08-01T07:06:27;3.38;;;2.35;;
64033;SDS011;50280;49.864;8.638;2022-08-01T07:09:18;2.58;;;1.88;;
64033;SDS011;50280;49.864;8.638;2022-08-01T07:12:09;3.30;;;1.55;;
64033;SDS011;50280;49.864;8.638;2022-08-01T07:15:03;3.97;;;2.50;;
64033;SDS011;50280;49.864;8.638;2022-08-01T07:17:56;3.65;;;2.38;;
64033;SDS011;50280;49.864;8.638;2022-08-01T07:20:47;5.68;;;2.28;;
64033;SDS011;50280;49.864;8.638;2022-08-01T07:23:39;4.85;;;1.92;;
64033;SDS011;50280;49.864;8.638;2022-08-01T07:26:30;3.60;;;2.17;;
64033;SDS011;50280;49.864;8.638;2022-08-01T07:29:22;3.55;;;1.92;;
64033;SDS011;50280;49.864;8.638;2022-08-01T07:32:16;3.88;;;1.85;;
64033;SDS011;50280;49.864;8.638;2022-08-01T07:35:07;3.72;;;1.95;;
64033;SDS011;50280;49.864;8.638;2022-08-01T07:37:59;4.20;;;2.10;;
64033;SDS011;50280;49.864;8.638;2022-08-01T07:40:50;3.42;;;2.10;;
64033;SDS011;50280;49.864;8.638;2022-08-01T07:43:42;4.25;;;2.00;;
64033;SDS011;50280;49.864;8.638;2022-08-01T07:46:33;4.10;;;2.05;;
64033;SDS011;50280;49.864;8.638;2022-08-01T07:49:25;4.13;;;2.08;;
64033;SDS011;50280;49.864;8.638;2022-08-01T07:52:17;5.80;;;2.10;;
64033;SDS011;50280;49.864;8.638;2022-08-01T07:55:08;3.55;;;2.00;;
64033;SDS011;50280;49.864;8.638;2022-08-01T07:58:01;2.95;;;1.85;;
64033;SDS011;50280;49.864;8.638;2022-08-01T08:00:52;4.35;;;2.10;;
64033;SDS011;50280;49.864;8.638;2022-08-01T08:03:43;4.22;;;2.10;;
64033;SDS011;50280;49.864;8.638;2022-08-01T08:06:36;2.38;;;1.90;;
64033;SDS011;50280;49.864;8.638;2022-08-01T08:09:27;2.75;;;1.90;;
64033;SDS011;50280;49.864;8.638;2022-08-01T08:12:18;3.28;;;1.98;;
64033;SDS011;50280;49.864;8.638;2022-08-01T08:15:09;3.60;;;1.95;;
64033;SDS011;50280;49.864;8.638;2022-08-01T08:18:02;3.83;;;2.00;;
64033;SDS011;50280;49.864;8.638;2022-08-01T08:20:54;2.72;;;2.00;;
64033;SDS011;50280;49.864;8.638;2022-08-01T08:23:46;4.95;;;2.00;;
64033;SDS011;50280;49.864;8.638;2022-08-01T08:26:38;4.22;;;2.10;;
64033;SDS011;50280;49.864;8.638;2022-08-01T08:29:29;5.07;;;2.05;;
64033;SDS011;50280;49.864;8.638;2022-08-01T08:32:21;5.07;;;2.17;;
64033;SDS011;50280;49.864;8.638;2022-08-01T08:35:12;7.00;;;4.13;;
64033;SDS011;50280;49.864;8.638;2022-08-01T08:38:04;5.87;;;2.60;;
64033;SDS011;50280;49.864;8.638;2022-08-01T08:40:56;3.92;;;1.90;;
64033;SDS011;50280;49.864;8.638;2022-08-01T08:43:48;4.05;;;2.15;;
64033;SDS011;50280;49.864;8.638;2022-08-01T08:46:40;2.53;;;1.85;;
64033;SDS011;50280;49.864;8.638;2022-08-01T08:49:35;3.92;;;2.05;;
64033;SDS011;50280;49.864;8.638;2022-08-01T08:52:28;2.92;;;1.80;;
64033;SDS011;50280;49.864;8.638;2022-08-01T08:55:25;3.72;;;2.20;;
64033;SDS011;50280;49.864;8.638;2022-08-01T08:58:20;3.47;;;1.98;;
64033;SDS011;50280;49.864;8.638;2022-08-01T09:01:16;3.40;;;2.33;;
64033;SDS011;50280;49.864;8.638;2022-08-01T09:04:08;3.65;;;2.10;;
64033;SDS011;50280;49.864;8.638;2022-08-01T09:07:00;3.92;;;1.98;;
64033;SDS011;50280;49.864;8.638;2022-08-01T09:09:55;3.70;;;2.10;;
64033;SDS011;50280;49.864;8.638;2022-08-01T09:13:02;3.05;;;2.00;;
64033;SDS011;50280;49.864;8.638;2022-08-01T09:16:01;4.45;;;2.30;;
64033;SDS011;50280;49.864;8.638;2022-08-01T09:19:03;5.13;;;2.50;;
64033;SDS011;50280;49.864;8.638;2022-08-01T09:22:02;4.35;;;2.15;;
64033;SDS011;50280;49.864;8.638;2022-08-01T09:24:56;4.43;;;3.05;;
64033;SDS011;50280;49.864;8.638;2022-08-01T09:28:01;3.80;;;1.95;;
64033;SDS011;50280;49.864;8.638;2022-08-01T09:30:56;4.60;;;2.33;;
64033;SDS011;50280;49.864;8.638;2022-08-01T09:33:50;2.70;;;2.20;;
64033;SDS011;50280;49.864;8.638;2022-08-01T09:36:46;2.72;;;1.95;;
64033;SDS011;50280;49.864;8.638;2022-08-01T09:39:40;4.40;;;2.05;;
64033;SDS011;50280;49.864;8.638;2022-08-01T09:42:31;2.40;;;1.90;;
64033;SDS011;50280;49.864;8.638;2022-08-01T09:45:32;3.00;;;2.15;;
64033;SDS011;50280;49.864;8.638;2022-08-01T09:48:24;4.20;;;2.00;;
64033;SDS011;50280;49.864;8.638;2022-08-01T09:51:23;4.40;;;1.90;;
64033;SDS011;50280;49.864;8.638;2022-08-01T09:54:27;2.83;;;1.83;;
64033;SDS011;50280;49.864;8.638;2022-08-01T09:57:23;5.35;;;2.33;;
64033;SDS011;50280;49.864;8.638;2022-08-01T09:59:58;3.63;;;2.00;;
64033;SDS011;50280;49.864;8.638;2022-08-01T10:19:07;3.33;;;1.90;;
64033;SDS011;50280;49.864;8.638;2022-08-01T10:21:40;4.82;;;2.50;;
64033;SDS011;50280;49.864;8.638;2022-08-01T10:24:14;3.88;;;2.10;;
64033;SDS011;50280;49.864;8.638;2022-08-01T10:26:50;3.53;;;2.22;;
64033;SDS011;50280;49.864;8.638;2022-08-01T10:29:28;4.10;;;2.10;;
64033;SDS011;50280;49.864;8.638;2022-08-01T10:32:11;3.08;;;1.85;;
64033;SDS011;50280;49.864;8.638;2022-08-01T10:34:45;4.60;;;2.33;;
64033;SDS011;50280;49.864;8.638;2022-08-01T10:37:18;3.75;;;2.45;;
64033;SDS011;50280;49.864;8.638;2022-08-01T10:39:51;3.60;;;2.05;;
64033;SDS011;50280;49.864;8.638;2022-08-01T10:42:26;3.78;;;2.10;;
64033;SDS011;50280;49.864;8.638;2022-08-01T10:44:58;6.78;;;2.42;;
64033;SDS011;50280;49.864;8.638;2022-08-01T10:47:33;3.15;;;2.13;;
64033;SDS011;50280;49.864;8.638;2022-08-01T10:50:23;4.63;;;1.80;;
64033;SDS011;50280;49.864;8.638;2022-08-01T10:53:09;2.80;;;1.70;;
64033;SDS011;50280;49.864;8.638;2022-08-01T10:55:46;3.85;;;1.80;;
64033;SDS011;50280;49.864;8.638;2022-08-01T10:58:22;2.88;;;1.88;;
64033;SDS011;50280;49.864;8.638;2022-08-01T11:01:13;3.95;;;2.00;;
64033;SDS011;50280;49.864;8.638;2022-08-01T11:04:00;2.70;;;1.80;;
64033;SDS011;50280;49.864;8.638;2022-08-01T11:09:39;3.28;;;1.88;;
64033;SDS011;50280;49.864;8.638;2022-08-01T11:12:16;4.13;;;2.22;;
64033;SDS011;50280;49.864;8.638;2022-08-01T11:17:56;4.40;;;2.10;;
64033;SDS011;50280;49.864;8.638;2022-08-01T11:20:32;2.40;;;1.80;;
64033;SDS011;50280;49.864;8.638;2022-08-01T11:23:18;2.97;;;1.67;;
64033;SDS011;50280;49.864;8.638;2022-08-01T11:26:06;2.33;;;1.80;;
64033;SDS011;50280;49.864;8.638;2022-08-01T11:28:46;6.50;;;2.05;;
64033;SDS011;50280;49.864;8.638;2022-08-01T11:31:45;2.70;;;1.77;;
64033;SDS011;50280;49.864;8.638;2022-08-01T11:34:17;5.32;;;1.80;;
64033;SDS011;50280;49.864;8.638;2022-08-01T11:36:50;3.10;;;1.85;;
64033;SDS011;50280;49.864;8.638;2022-08-01T11:43:18;2.30;;;1.52;;
64033;SDS011;50280;49.864;8.638;2022-08-01T11:45:55;2.10;;;1.60;;
64033;SDS011;50280;49.864;8.638;2022-08-01T11:48:31;3.60;;;1.88;;
64033;SDS011;50280;49.864;8.638;2022-08-01T11:51:04;2.85;;;1.65;;
64033;SDS011;50280;49.864;8.638;2022-08-01T11:53:47;4.55;;;1.80;;
64033;SDS011;50280;49.864;8.638;2022-08-01T11:56:23;4.60;;;1.75;;
64033;SDS011;50280;49.864;8.638;2022-08-01T11:58:58;2.83;;;1.42;;
64033;SDS011;50280;49.864;8.638;2022-08-01T12:01:31;2.97;;;1.73;;
64033;SDS011;50280;49.864;8.638;2022-08-01T12:04:03;2.67;;;1.35;;
64033;SDS011;50280;49.864;8.638;2022-08-01T12:06:36;2.47;;;1.38;;
64033;SDS011;50280;49.864;8.638;2022-08-01T12:09:14;2.67;;;1.70;;
64033;SDS011;50280;49.864;8.638;2022-08-01T12:11:51;2.10;;;1.48;;
64033;SDS011;50280;49.864;8.638;2022-08-01T12:14:24;3.95;;;1.55;;
64033;SDS011;50280;49.864;8.638;2022-08-01T12:16:56;3.42;;;1.75;;
64033;SDS011;50280;49.864;8.638;2022-08-01T12:19:29;3.17;;;1.70;;
64033;SDS011;50280;49.864;8.638;2022-08-01T12:22:06;3.17;;;1.58;;
64033;SDS011;50280;49.864;8.638;2022-08-01T12:24:44;2.00;;;1.50;;
64033;SDS011;50280;49.864;8.638;2022-08-01T12:27:24;3.50;;;1.40;;
64033;SDS011;50280;49.864;8.638;2022-08-01T12:30:02;2.50;;;1.60;;
64033;SDS011;50280;49.864;8.638;2022-08-01T12:32:40;1.80;;;1.38;;
64033;SDS011;50280;49.864;8.638;2022-08-01T12:35:15;4.03;;;1.70;;
64033;SDS011;50280;49.864;8.638;2022-08-01T12:37:52;2.90;;;1.40;;
64033;SDS011;50280;49.864;8.638;2022-08-01T12:40:29;2.85;;;1.50;;
64033;SDS011;50280;49.864;8.638;2022-08-01T12:43:07;2.13;;;1.40;;
64033;SDS011;50280;49.864;8.638;2022-08-01T12:45:42;2.20;;;1.55;;
64033;SDS011;50280;49.864;8.638;2022-08-01T12:48:19;4.97;;;1.80;;
64033;SDS011;50280;49.864;8.638;2022-08-01T12:50:52;3.05;;;2.00;;
64033;SDS011;50280;49.864;8.638;2022-08-01T12:53:32;3.03;;;1.70;;
64033;SDS011;50280;49.864;8.638;2022-08-01T12:56:06;3.50;;;1.70;;
64033;SDS011;50280;49.864;8.638;2022-08-01T12:58:42;3.13;;;1.60;;
64033;SDS011;50280;49.864;8.638;2022-08-01T13:01:14;3.72;;;1.90;;
64033;SDS011;50280;49.864;8.638;2022-08-01T13:03:56;3.30;;;1.80;;
64033;SDS011;50280;49.864;8.638;2022-08-01T13:06:32;3.42;;;1.70;;
64033;SDS011;50280;49.864;8.638;2022-08-01T13:09:04;5.47;;;2.20;;
64033;SDS011;50280;49.864;8.638;2022-08-01T13:11:38;2.72;;;1.55;;
64033;SDS011;50280;49.864;8.638;2022-08-01T13:17:01;5.32;;;1.50;;
64033;SDS011;50280;49.864;8.638;2022-08-01T13:19:42;3.10;;;1.85;;
64033;SDS011;50280;49.864;8.638;2022-08-01T13:22:15;2.15;;;1.60;;
64033;SDS011;50280;49.864;8.638;2022-08-01T13:24:48;3.28;;;1.63;;
64033;SDS011;50280;49.864;8.638;2022-08-01T13:27:20;2.90;;;1.70;;
64033;SDS011;50280;49.864;8.638;2022-08-01T13:29:54;2.63;;;1.58;;
64033;SDS011;50280;49.864;8.638;2022-08-01T13:32:44;2.33;;;1.48;;
64033;SDS011;50280;49.864;8.638;2022-08-01T13:35:29;3.33;;;1.85;;
64033;SDS011;50280;49.864;8.638;2022-08-01T13:38:02;3.40;;;1.85;;
64033;SDS011;50280;49.864;8.638;2022-08-01T13:40:34;2.55;;;1.45;;
64033;SDS011;50280;49.864;8.638;2022-08-01T13:43:07;2.50;;;1.52;;
64033;SDS011;50280;49.864;8.638;2022-08-01T13:45:41;2.53;;;1.63;;
64033;SDS011;50280;49.864;8.638;2022-08-01T13:48:13;2.50;;;1.50;;
64033;SDS011;50280;49.864;8.638;2022-08-01T13:50:46;3.28;;;1.70;;
64033;SDS011;50280;49.864;8.638;2022-08-01T13:53:18;3.75;;;1.75;;
64033;SDS011;50280;49.864;8.638;2022-08-01T13:55:51;3.15;;;1.55;;
64033;SDS011;50280;49.864;8.638;2022-08-01T13:58:23;3.58;;;1.77;;
64033;SDS011;50280;49.864;8.638;2022-08-01T14:00:57;3.33;;;1.58;;
64033;SDS011;50280;49.864;8.638;2022-08-01T14:03:30;3.30;;;1.60;;
64033;SDS011;50280;49.864;8.638;2022-08-01T14:06:02;4.32;;;1.77;;
64033;SDS011;50280;49.864;8.638;2022-08-01T14:08:35;3.60;;;1.60;;
64033;SDS011;50280;49.864;8.638;2022-08-01T14:11:08;4.80;;;1.70;;
64033;SDS011;50280;49.864;8.638;2022-08-01T14:13:40;2.70;;;1.50;;
64033;SDS011;50280;49.864;8.638;2022-08-01T14:16:14;3.17;;;1.67;;
64033;SDS011;50280;49.864;8.638;2022-08-01T14:18:48;2.83;;;1.60;;
64033;SDS011;50280;49.864;8.638;2022-08-01T14:21:21;2.70;;;1.40;;
64033;SDS011;50280;49.864;8.638;2022-08-01T14:23:53;2.45;;;1.48;;
64033;SDS011;50280;49.864;8.638;2022-08-01T14:26:25;2.70;;;1.67;;
64033;SDS011;50280;49.864;8.638;2022-08-01T14:28:58;3.28;;;1.60;;
64033;SDS011;50280;49.864;8.638;2022-08-01T14:31:32;2.72;;;1.60;;
64033;SDS011;50280;49.864;8.638;2022-08-01T14:34:04;8.43;;;1.70;;
64033;SDS011;50280;49.864;8.638;2022-08-01T14:36:37;7.63;;;1.65;;
64033;SDS011;50280;49.864;8.638;2022-08-01T14:39:09;3.47;;;1.70;;
64033;SDS011;50280;49.864;8.638;2022-08-01T14:41:42;2.15;;;1.42;;
64033;SDS011;50280;49.864;8.638;2022-08-01T14:44:14;4.07;;;1.60;;
64033;SDS011;50280;49.864;8.638;2022-08-01T14:46:48;2.15;;;1.50;;
64033;SDS011;50280;49.864;8.638;2022-08-01T14:49:20;3.22;;;1.63;;
64033;SDS011;50280;49.864;8.638;2022-08-01T14:51:53;4.05;;;1.85;;
64033;SDS011;50280;49.864;8.638;2022-08-01T14:54:25;3.65;;;1.50;;
64033;SDS011;50280;49.864;8.638;2022-08-01T14:56:58;2.83;;;1.40;;
64033;SDS011;50280;49.864;8.638;2022-08-01T14:59:30;10.45;;;6.63;;
64033;SDS011;50280;49.864;8.638;2022-08-01T15:02:04;3.45;;;1.40;;
64033;SDS011;50280;49.864;8.638;2022-08-01T15:04:37;2.85;;;1.52;;
64033;SDS011;50280;49.864;8.638;2022-08-01T15:07:09;3.50;;;1.40;;
64033;SDS011;50280;49.864;8.638;2022-08-01T15:09:42;3.00;;;1.30;;
64033;SDS011;50280;49.864;8.638;2022-08-01T15:12:16;3.15;;;1.50;;
64033;SDS011;50280;49.864;8.638;2022-08-01T15:14:48;1.92;;;1.48;;
64033;SDS011;50280;49.864;8.638;2022-08-01T15:17:22;5.43;;;1.60;;
64033;SDS011;50280;49.864;8.638;2022-08-01T15:19:59;2.83;;;1.40;;
64033;SDS011;50280;49.864;8.638;2022-08-01T15:22:35;2.70;;;1.50;;
64033;SDS011;50280;49.864;8.638;2022-08-01T15:25:07;2.05;;;1.35;;
64033;SDS011;50280;49.864;8.638;2022-08-01T15:27:40;2.65;;;1.38;;
64033;SDS011;50280;49.864;8.638;2022-08-01T15:30:12;2.95;;;1.33;;
64033;SDS011;50280;49.864;8.638;2022-08-01T15:32:46;6.25;;;1.58;;
64033;SDS011;50280;49.864;8.638;2022-08-01T15:35:18;8.38;;;1.58;;
64033;SDS011;50280;49.864;8.638;2022-08-01T15:37:51;3.70;;;1.90;;
64033;SDS011;50280;49.864;8.638;2022-08-01T15:40:24;3.88;;;1.65;;
64033;SDS011;50280;49.864;8.638;2022-08-01T15:42:56;2.15;;;1.02;;
64033;SDS011;50280;49.864;8.638;2022-08-01T15:45:29;1.80;;;1.10;;
64033;SDS011;50280;49.864;8.638;2022-08-01T15:48:03;4.45;;;1.90;;
64033;SDS011;50280;49.864;8.638;2022-08-01T15:50:36;5.97;;;1.42;;
64033;SDS011;50280;49.864;8.638;2022-08-01T15:53:08;7.75;;;1.73;;
64033;SDS011;50280;49.864;8.638;2022-08-01T15:55:41;3.60;;;1.60;;
64033;SDS011;50280;49.864;8.638;2022-08-01T15:58:14;4.45;;;2.00;;
64033;SDS011;50280;49.864;8.638;2022-08-01T16:00:46;3.15;;;1.45;;
64033;SDS011;50280;49.864;8.638;2022-08-01T16:03:20;3.47;;;1.60;;
64033;SDS011;50280;49.864;8.638;2022-08-01T16:05:53;3.80;;;1.92;;
64033;SDS011;50280;49.864;8.638;2022-08-01T16:08:25;4.22;;;2.13;;
64033;SDS011;50280;49.864;8.638;2022-08-01T16:10:58;3.90;;;1.83;;
64033;SDS011;50280;49.864;8.638;2022-08-01T16:13:30;3.67;;;2.03;;
64033;SDS011;50280;49.864;8.638;2022-08-01T16:16:03;4.05;;;1.90;;
64033;SDS011;50280;49.864;8.638;2022-08-01T16:18:40;4.13;;;2.13;;
64033;SDS011;50280;49.864;8.638;2022-08-01T16:21:13;3.47;;;1.60;;
64033;SDS011;50280;49.864;8.638;2022-08-01T16:23:46;2.53;;;1.60;;
64033;SDS011;50280;49.864;8.638;2022-08-01T16:26:19;4.28;;;1.85;;
64033;SDS011;50280;49.864;8.638;2022-08-01T16:28:51;3.72;;;2.05;;
64033;SDS011;50280;49.864;8.638;2022-08-01T16:31:24;13.15;;;3.13;;
64033;SDS011;50280;49.864;8.638;2022-08-01T16:33:58;8.13;;;3.38;;
64033;SDS011;50280;49.864;8.638;2022-08-01T16:36:31;8.13;;;3.38;;
64033;SDS011;50280;49.864;8.638;2022-08-01T16:39:03;6.63;;;2.92;;
64033;SDS011;50280;49.864;8.638;2022-08-01T16:41:36;5.40;;;2.72;;
64033;SDS011;50280;49.864;8.638;2022-08-01T16:44:09;7.97;;;3.50;;
64033;SDS011;50280;49.864;8.638;2022-08-01T16:46:41;4.70;;;3.22;;
64033;SDS011;50280;49.864;8.638;2022-08-01T16:49:15;7.47;;;3.78;;
64033;SDS011;50280;49.864;8.638;2022-08-01T16:51:48;7.50;;;3.00;;
64033;SDS011;50280;49.864;8.638;2022-08-01T16:54:20;7.50;;;3.53;;
64033;SDS011;50280;49.864;8.638;2022-08-01T16:56:53;7.95;;;4.45;;
64033;SDS011;50280;49.864;8.638;2022-08-01T16:59:26;6.10;;;3.72;;
64033;SDS011;50280;49.864;8.638;2022-08-01T17:01:58;6.68;;;3.80;;
64033;SDS011;50280;49.864;8.638;2022-08-01T17:04:32;7.95;;;4.20;;
64033;SDS011;50280;49.864;8.638;2022-08-01T17:07:05;7.78;;;3.78;;
64033;SDS011;50280;49.864;8.638;2022-08-01T17:09:37;6.55;;;4.00;;
64033;SDS011;50280;49.864;8.638;2022-08-01T17:12:10;7.30;;;3.78;;